• Join FlightAware (Why Join?)
  • Login
  • US Flag 
08:02AM EST


 

Airport Tracker/Info


-or-


 

Live Flight TrackerFlight Track Log ✈ SWA1017 ✈ 18-Jul-2013 ✈ KDAL - KTUL

Flight Track Log - Related Links

Times and Time Zones

All times are in EDT time to prevent confusion due to time zone crossing. See the SWA1017 flight status page for this flight to view local times or setup timezone preferences in your user account.

Time Position Orientation Groundspeed Altitude Reporting Facility
EDT Latitude Longitude Course Direction KTS MPH feet Rate Location/Type
01:20PM 32.8167 -96.8000 121° Southeast 187 215 2,600  Level Dallas / Fort Worth TRACON
01:21PM 32.7833 -96.7500 128° Southeast 198 228 6,800 3,600 Climbing Dallas / Fort Worth TRACON
01:24PM 32.9569 -96.7844 351° North 303 349 15,200 3,000 Climbing Fort Worth Center
01:25PM 33.0511 -96.8186 343° North 328 377 17,400 2,520 Climbing Fort Worth Center
01:26PM 33.1453 -96.8478 345° North 370 426 20,200 2,880 Climbing Fort Worth Center
01:27PM 33.2600 -96.8122 15° North 374 430 23,200 2,400 Climbing Fort Worth Center
01:28PM 33.3619 -96.7767 16° North 390 449 25,100 2,040 Climbing Fort Worth Center
01:29PM 33.4767 -96.7386 15° North 400 460 27,300 2,400 Climbing Fort Worth Center
01:30PM 33.5933 -96.7003 15° North 420 483 30,000 2,760 Climbing Fort Worth Center
01:31PM 33.7078 -96.6619 16° North 420 483 32,900 1,500 Climbing Fort Worth Center
01:32PM 33.8181 -96.6233 16° North 415 478 33,000  Climbing Fort Worth Center
01:33PM 33.9347 -96.5822 16° North 415 478 33,000  Level Fort Worth Center
01:34PM 34.0472 -96.5436 16° North 420 483 33,000  Level Fort Worth Center
01:35PM 34.1681 -96.5047 15° North 408 470 33,000  Level Fort Worth Center
01:36PM 34.2825 -96.4658 16° North 414 476 33,000  Level Fort Worth Center
01:37PM 34.3969 -96.4244 17° North 414 476 33,000  Level Fort Worth Center
01:38PM 34.5114 -96.3878 15° North 414 476 33,000 -240 Level Fort Worth Center
01:39PM 34.6258 -96.3461 17° North 414 476 32,600 -1,620 Descending Fort Worth Center
01:40PM 34.7403 -96.3042 17° North 414 476 29,800 -2,580 Descending Fort Worth Center
01:41PM 34.8544 -96.2672 15° North 414 476 27,500 -2,340 Descending Fort Worth Center
01:42PM 34.9544 -96.2306 17° North 414 476 25,200 -2,220 Descending Fort Worth Center
01:43PM 35.0625 -96.1911 17° North 409 471 23,100 -2,100 Descending Fort Worth Center
01:44PM 35.1622 -96.1564 16° North 389 448 21,000 -2,100 Descending Fort Worth Center
01:45PM 35.2642 -96.1219 15° North 379 436 18,900 -1,920 Descending Fort Worth Center
01:46PM 35.3844 -96.0775 17° North 368 423 16,700 -1,740 Descending Kansas City Center
01:47PM 35.4831 -96.0544 11° North 354 407 15,000 -1,500 Descending Kansas City Center
01:48PM 35.5744 -96.0556 359° North 330 380 13,700 -1,620 Descending Kansas City Center
01:49PM 35.6747 -96.0567 359° North 313 360 11,800 -1,680 Descending Kansas City Center
01:50PM 35.7664 -96.0564 360° North 311 358 10,300 -1,500 Descending Kansas City Center
01:51PM 35.8358 -96.0517 North 295 339 9,000 -1,500 Descending Kansas City Center
01:52PM 35.9314 -96.0458 North 295 339 7,300 -1,440 Descending Kansas City Center
01:53PM 35.9964 -96.0414 North 287 330 6,100 -1,500 Descending Kansas City Center
01:54PM 36.0756 -96.0339 North 282 325 4,600 -1,320 Descending Kansas City Center
01:55PM 36.1422 -95.9789 34° Northeast 269 310 3,500 -600 Descending Kansas City Center
01:56PM 36.1933 -95.9386 32° Northeast 200 230 3,500 -480 Level Kansas City Center
01:57PM 36.2389 -95.9328 North 136 157 2,600 -1,080 Descending Kansas City Center
01:58PM 36.2478 -95.8875 76° East 142 163 1,400 -840 Descending Kansas City Center
02:00PM 36.2053 -95.8814 173° South 152 175 700 -540 Descending Kansas City Center